EGPB/LSI METAR and TAF weather

Enter ICAO airport designator
Station Type Date Time Source
EGPB METAR 2021/03/05 07:20 UTC NOAA

EGPB 050720Z 30012KT 9999 FEW026 BKN037 05/M00 Q1031


Station Type Date Time Source
EGPB Decoded METAR 2021/03/05 07:20 UTC NOAA

Sumburgh Cape , United Kingdom (EGPB) 59-53N 001-18W
Mar 05, 2021 - 02:20 AM EST / 2021.03.05 0720 UTC
Wind: from the WNW (300 degrees) at 14 MPH (12 KT):0
Visibility: greater than 7 mile(s):0
Sky conditions: mostly cloudy
Temperature: 41 F (5 C)
Dew Point: 32 F (0 C)
Relative Humidity: 70%
Pressure (altimeter): 30.45 in. Hg (1031 hPa)
ob: EGPB 050720Z 30012KT 9999 FEW026 BKN037 05/M00 Q1031
cycle: 7

Station Type Date Time Source
EGPB TAF UTC NOAA

Error!

Example: see airport list